createdAt,value
2022-11-20T00:00:05.947Z,1.23
2022-11-20T00:02:07.646Z,1.20
2022-11-20T00:04:11.040Z,1.20
2022-11-20T00:06:15.733Z,1.52
2022-11-20T00:08:17.468Z,1.10
2022-11-20T00:10:22.677Z,1.33
2022-11-20T00:12:24.396Z,1.30
2022-11-20T00:14:26.107Z,1.23
2022-11-20T00:16:29.221Z,0.85
2022-11-20T00:18:31.212Z,1.83
2022-11-20T00:20:33.009Z,1.20
2022-11-20T00:22:34.632Z,1.35
2022-11-20T00:24:41.684Z,1.30
2022-11-20T00:26:45.395Z,1.27
2022-11-20T00:28:58.435Z,1.10
2022-11-20T00:31:05.139Z,1.00
2022-11-20T00:33:06.773Z,0.85
2022-11-20T00:35:08.597Z,1.30
2022-11-20T00:37:10.195Z,1.20
2022-11-20T00:39:11.886Z,1.10
2022-11-20T00:41:15.328Z,0.80
2022-11-20T00:43:16.961Z,1.40
2022-11-20T00:45:18.880Z,0.90
2022-11-20T00:47:20.433Z,0.90
2022-11-20T00:49:27.946Z,0.75
2022-11-20T00:51:29.848Z,1.02
2022-11-20T00:53:31.604Z,1.30
2022-11-20T00:55:33.207Z,0.90
2022-11-20T00:57:38.061Z,0.77
2022-11-20T00:59:39.651Z,0.90
2022-11-20T01:01:41.194Z,0.88
2022-11-20T01:03:50.535Z,0.90
2022-11-20T01:05:52.242Z,0.95
2022-11-20T01:07:53.883Z,1.00
2022-11-20T01:09:55.577Z,1.48
2022-11-20T01:11:57.346Z,1.17
2022-11-20T01:14:00.161Z,1.15
2022-11-20T01:16:16.134Z,1.00
2022-11-20T01:18:17.758Z,1.13
2022-11-20T01:20:19.384Z,1.08
2022-11-20T01:22:21.097Z,1.10
2022-11-20T01:24:23.680Z,1.10
2022-11-20T01:26:27.776Z,0.90
2022-11-20T01:28:30.013Z,0.90
2022-11-20T01:30:31.614Z,1.27
2022-11-20T01:32:33.266Z,0.88
2022-11-20T01:34:34.865Z,1.08
2022-11-20T01:36:37.942Z,0.95
2022-11-20T01:38:40.205Z,1.15
2022-11-20T01:40:41.787Z,0.90
2022-11-20T01:43:07.910Z,1.00
2022-11-20T01:45:48.601Z,0.90
2022-11-20T01:47:51.396Z,1.00
2022-11-20T01:49:59.783Z,1.10
2022-11-20T01:52:15.221Z,0.90
2022-11-20T01:54:45.340Z,0.90
2022-11-20T01:56:49.391Z,0.90
2022-11-20T01:58:55.869Z,1.10
2022-11-20T02:00:57.831Z,1.33
2022-11-20T02:03:07.286Z,0.90
2022-11-20T02:05:21.970Z,1.25
2022-11-20T02:07:24.890Z,1.00
2022-11-20T02:09:27.085Z,1.35
2022-11-20T02:11:28.865Z,1.17
2022-11-20T02:13:45.471Z,1.00
2022-11-20T02:15:47.249Z,1.00
2022-11-20T02:17:49.440Z,0.77
2022-11-20T02:19:51.180Z,0.85
2022-11-20T02:22:03.507Z,1.25
2022-11-20T02:24:16.235Z,1.05
2022-11-20T02:26:18.215Z,1.00
2022-11-20T02:28:19.802Z,0.93
2022-11-20T02:30:21.454Z,1.00
2022-11-20T02:32:34.614Z,0.80
2022-11-20T02:34:36.236Z,0.70
2022-11-20T02:36:40.905Z,1.00
2022-11-20T02:38:43.477Z,1.00
2022-11-20T02:40:45.199Z,1.10
2022-11-20T02:42:46.759Z,1.15
2022-11-20T02:44:48.472Z,0.82
2022-11-20T02:46:50.111Z,0.82
2022-11-20T02:48:51.736Z,1.15
2022-11-20T02:50:53.424Z,1.00
2022-11-20T02:52:55.180Z,1.10
2022-11-20T02:54:56.790Z,0.98
2022-11-20T02:56:58.390Z,1.38
2022-11-20T02:59:00.015Z,1.00
2022-11-20T03:01:01.714Z,1.20
2022-11-20T03:03:03.518Z,1.00
2022-11-20T03:05:05.344Z,1.30
2022-11-20T03:07:07.007Z,1.35
2022-11-20T03:09:08.727Z,1.20
2022-11-20T03:11:10.582Z,1.35
2022-11-20T03:13:12.242Z,1.10
2022-11-20T03:15:13.925Z,1.10
2022-11-20T03:17:15.538Z,1.33
2022-11-20T03:19:17.240Z,1.27
2022-11-20T03:21:19.040Z,1.25
2022-11-20T03:23:20.607Z,1.10
2022-11-20T03:25:23.171Z,1.23
2022-11-20T03:27:24.768Z,1.10
2022-11-20T03:29:26.660Z,0.95
2022-11-20T03:31:31.533Z,1.00
2022-11-20T03:33:33.115Z,1.08
2022-11-20T03:35:34.830Z,0.80
2022-11-20T03:37:36.567Z,1.30
2022-11-20T03:39:38.216Z,0.90
2022-11-20T03:41:41.729Z,1.30
2022-11-20T03:43:43.379Z,1.02
2022-11-20T03:45:45.046Z,1.30
2022-11-20T03:47:46.869Z,0.90
2022-11-20T03:49:48.581Z,1.27
2022-11-20T03:51:50.275Z,0.98
2022-11-20T03:53:54.101Z,1.10
2022-11-20T03:55:55.718Z,1.35
2022-11-20T03:57:57.280Z,1.08
2022-11-20T03:59:59.125Z,1.38
2022-11-20T04:02:00.813Z,1.45
2022-11-20T04:04:02.706Z,1.80
2022-11-20T04:06:18.096Z,0.93
2022-11-20T04:08:19.952Z,0.90
2022-11-20T04:10:22.058Z,1.00
2022-11-20T04:12:23.712Z,1.13
2022-11-20T04:14:25.453Z,1.20
2022-11-20T04:16:29.921Z,1.10
2022-11-20T04:18:31.509Z,1.30
2022-11-20T04:20:33.093Z,0.90
2022-11-20T04:22:35.004Z,0.90
2022-11-20T04:24:36.594Z,0.90
2022-11-20T04:26:38.523Z,1.00
2022-11-20T04:28:40.466Z,1.42
2022-11-20T04:30:42.161Z,1.25
2022-11-20T04:32:43.941Z,0.90
2022-11-20T04:34:45.550Z,1.10
2022-11-20T04:36:47.186Z,1.08
2022-11-20T04:38:59.007Z,1.20
2022-11-20T04:41:02.237Z,1.25
2022-11-20T04:43:03.804Z,1.00
2022-11-20T04:45:05.936Z,0.95
2022-11-20T04:47:07.566Z,1.08
2022-11-20T04:49:09.606Z,1.05
2022-11-20T04:51:11.438Z,1.05
2022-11-20T04:53:13.295Z,1.00
2022-11-20T04:55:14.961Z,0.95
2022-11-20T04:57:16.683Z,0.80
2022-11-20T04:59:18.503Z,0.80
2022-11-20T05:01:22.709Z,1.20
2022-11-20T05:03:24.365Z,1.02
2022-11-20T05:05:26.160Z,1.25
2022-11-20T05:07:27.774Z,1.10
2022-11-20T05:09:29.441Z,1.23
2022-11-20T05:11:32.954Z,1.13
2022-11-20T05:13:34.712Z,1.05
2022-11-20T05:15:36.586Z,1.05
2022-11-20T05:17:38.401Z,0.80
2022-11-20T05:19:40.083Z,0.85
2022-11-20T05:21:41.677Z,0.80
2022-11-20T05:23:44.387Z,0.65
2022-11-20T05:25:46.142Z,1.00
2022-11-20T05:27:47.714Z,0.80
2022-11-20T05:29:49.295Z,0.88
2022-11-20T05:31:50.949Z,0.98
2022-11-20T05:33:52.865Z,1.10
2022-11-20T05:35:59.303Z,1.25
2022-11-20T05:38:00.915Z,0.98
2022-11-20T05:40:02.629Z,1.05
2022-11-20T05:42:22.750Z,1.00
2022-11-20T05:44:24.345Z,1.15
2022-11-20T05:46:28.644Z,0.82
2022-11-20T05:48:31.736Z,1.10
2022-11-20T05:50:33.323Z,1.10
2022-11-20T05:52:35.480Z,1.20
2022-11-20T05:54:37.091Z,0.98
2022-11-20T05:56:38.659Z,1.33
2022-11-20T05:58:41.144Z,0.98
2022-11-20T06:00:42.866Z,1.25
2022-11-20T06:02:44.593Z,1.10
2022-11-20T06:04:46.355Z,1.00
2022-11-20T06:06:47.972Z,1.10
2022-11-20T06:08:49.695Z,1.00
2022-11-20T06:10:51.379Z,0.95
2022-11-20T06:12:53.254Z,1.23
2022-11-20T06:14:54.984Z,1.45
2022-11-20T06:16:56.655Z,1.10
2022-11-20T06:18:58.313Z,1.27
2022-11-20T06:21:03.506Z,1.60
2022-11-20T06:23:05.149Z,1.23
2022-11-20T06:25:07.105Z,1.15
2022-11-20T06:27:08.696Z,1.25
2022-11-20T06:29:10.354Z,1.45
2022-11-20T06:31:14.543Z,1.33
2022-11-20T06:33:16.252Z,1.17
2022-11-20T06:35:17.886Z,1.13
2022-11-20T06:37:19.572Z,1.35
2022-11-20T06:39:21.326Z,1.52
2022-11-20T06:41:23.436Z,1.60
2022-11-20T06:43:25.683Z,1.42
2022-11-20T06:45:27.832Z,1.35
2022-11-20T06:47:29.583Z,1.50
2022-11-20T06:49:31.171Z,1.40
2022-11-20T06:51:32.933Z,1.10
2022-11-20T06:53:35.355Z,1.20
2022-11-20T06:55:37.281Z,1.00
2022-11-20T06:57:38.983Z,0.90
2022-11-20T06:59:40.619Z,1.63
2022-11-20T07:01:42.402Z,1.40
2022-11-20T07:03:44.062Z,1.67
2022-11-20T07:05:46.990Z,1.58
2022-11-20T07:07:48.667Z,1.52
2022-11-20T07:09:50.250Z,1.10
2022-11-20T07:11:51.868Z,1.20
2022-11-20T07:13:53.758Z,1.10
2022-11-20T07:15:55.611Z,1.38
2022-11-20T07:18:00.282Z,1.10
2022-11-20T07:20:01.939Z,1.20
2022-11-20T07:22:03.486Z,1.17
2022-11-20T07:24:05.275Z,1.02
2022-11-20T07:26:08.299Z,1.15
2022-11-20T07:28:11.665Z,0.80
2022-11-20T07:30:15.102Z,1.23
2022-11-20T07:32:16.767Z,1.13
2022-11-20T07:34:18.497Z,1.35
2022-11-20T07:36:20.216Z,1.20
2022-11-20T07:38:21.883Z,1.60
2022-11-20T07:40:23.548Z,1.15
2022-11-20T07:42:25.121Z,1.48
2022-11-20T07:44:27.262Z,1.30
2022-11-20T07:46:38.571Z,1.30
2022-11-20T07:48:40.636Z,1.40
2022-11-20T07:50:42.270Z,1.33
2022-11-20T07:52:44.260Z,1.40
2022-11-20T07:54:45.933Z,1.05
2022-11-20T07:56:48.496Z,1.23
2022-11-20T07:58:50.211Z,1.00
2022-11-20T08:00:51.904Z,1.27
2022-11-20T08:02:53.771Z,1.40
2022-11-20T08:04:55.452Z,1.58
2022-11-20T08:06:57.427Z,1.60
2022-11-20T08:08:59.252Z,1.70
2022-11-20T08:11:19.715Z,2.00
2022-11-20T08:13:39.537Z,2.58
2022-11-20T08:15:41.780Z,1.33
2022-11-20T08:17:56.747Z,1.98
2022-11-20T08:20:05.729Z,2.40
2022-11-20T08:22:07.327Z,1.83
2022-11-20T08:24:10.686Z,1.70
2022-11-20T08:26:12.438Z,1.73
2022-11-20T08:28:20.900Z,1.42
2022-11-20T08:30:23.698Z,1.95
2022-11-20T08:32:25.430Z,1.30
2022-11-20T08:34:27.101Z,1.80
2022-11-20T08:36:29.321Z,1.67
2022-11-20T08:38:31.649Z,1.30
2022-11-20T08:40:34.104Z,1.60
2022-11-20T08:42:35.788Z,1.27
2022-11-20T08:44:37.427Z,1.48
2022-11-20T08:46:41.952Z,1.45
2022-11-20T08:48:45.282Z,1.45
2022-11-20T08:50:46.928Z,1.13
2022-11-20T08:52:48.542Z,1.40
2022-11-20T08:54:50.193Z,1.80
2022-11-20T08:56:51.871Z,2.08
2022-11-20T09:01:15.396Z,2.17
2022-11-20T09:03:35.237Z,2.28
2022-11-20T09:05:36.937Z,2.60
2022-11-20T09:07:38.740Z,1.83
2022-11-20T09:09:40.417Z,1.98
2022-11-20T09:11:42.073Z,2.08
2022-11-20T09:13:43.696Z,2.20
2022-11-20T09:15:45.329Z,1.65
2022-11-20T09:18:00.346Z,1.45
2022-11-20T09:20:02.025Z,1.50
2022-11-20T09:22:04.031Z,1.75
2022-11-20T09:24:06.397Z,1.48
2022-11-20T09:26:11.498Z,1.58
2022-11-20T09:28:13.193Z,0.90
2022-11-20T09:30:15.729Z,1.10
2022-11-20T09:32:17.549Z,1.13
2022-11-20T09:34:19.201Z,1.35
2022-11-20T09:36:21.109Z,0.98
2022-11-20T09:38:22.903Z,1.20
2022-11-20T09:40:27.751Z,1.30
2022-11-20T09:42:42.633Z,1.20
2022-11-20T09:44:50.175Z,1.33
2022-11-20T09:46:58.532Z,1.63
2022-11-20T09:49:31.841Z,1.92
2022-11-20T09:51:43.389Z,2.10
2022-11-20T09:53:51.119Z,2.30
2022-11-20T09:55:52.714Z,2.50
2022-11-20T09:57:55.081Z,2.00
2022-11-20T10:00:02.092Z,2.40
2022-11-20T10:02:13.995Z,2.83
2022-11-20T10:04:20.889Z,2.40
2022-11-20T10:06:42.266Z,1.50
2022-11-20T10:08:52.865Z,1.83
2022-11-20T10:11:06.438Z,2.00
2022-11-20T10:13:37.831Z,2.25
2022-11-20T10:15:54.741Z,2.30
2022-11-20T10:18:21.875Z,1.83
2022-11-20T10:20:31.244Z,2.78
2022-11-20T10:22:48.113Z,2.85
2022-11-20T10:24:49.709Z,2.20
2022-11-20T10:27:02.119Z,2.28
2022-11-20T10:29:15.698Z,2.25
2022-11-20T10:31:38.054Z,1.77
2022-11-20T10:34:10.497Z,2.60
2022-11-20T10:36:19.631Z,2.42
2022-11-20T10:39:00.404Z,1.77
2022-11-20T10:41:22.349Z,3.08
2022-11-20T10:43:34.427Z,2.10
2022-11-20T10:46:04.917Z,2.50
2022-11-20T10:48:26.979Z,4.88
2022-11-20T10:50:29.309Z,3.47
2022-11-20T10:52:58.612Z,3.10
2022-11-20T10:55:12.585Z,3.28
2022-11-20T10:57:58.278Z,3.25
2022-11-20T11:00:11.945Z,3.58
2022-11-20T11:02:21.824Z,3.75
2022-11-20T11:04:45.659Z,2.60
2022-11-20T11:06:49.184Z,3.63
2022-11-20T11:08:51.729Z,2.42
2022-11-20T11:10:58.588Z,1.42
2022-11-20T11:13:00.234Z,2.15
2022-11-20T11:15:01.890Z,1.42
2022-11-20T11:17:03.531Z,1.50
2022-11-20T11:19:13.620Z,1.20
2022-11-20T11:21:24.942Z,1.50
2022-11-20T11:23:39.111Z,1.65
2022-11-20T11:27:50.065Z,0.93
2022-11-20T11:30:03.110Z,1.10
2022-11-20T11:32:22.793Z,1.05
2022-11-20T11:34:24.509Z,1.00
2022-11-20T11:36:26.104Z,0.93
2022-11-20T11:38:40.008Z,1.10
2022-11-20T11:40:41.919Z,1.55
2022-11-20T11:42:59.252Z,1.17
2022-11-20T11:45:07.208Z,1.08
2022-11-20T11:47:26.900Z,1.40
2022-11-20T11:49:28.461Z,1.50
2022-11-20T11:51:37.980Z,1.75
2022-11-20T11:53:42.766Z,1.27
2022-11-20T11:55:48.302Z,1.50
2022-11-20T11:58:12.492Z,2.05
2022-11-20T12:00:15.755Z,2.10
2022-11-20T12:02:29.632Z,1.50
2022-11-20T12:04:47.589Z,1.83
2022-11-20T12:06:54.905Z,1.35
2022-11-20T12:09:09.566Z,1.35
2022-11-20T12:11:11.467Z,1.05
2022-11-20T12:13:16.110Z,1.33
2022-11-20T12:15:27.122Z,1.00
2022-11-20T12:17:29.106Z,1.10
2022-11-20T12:19:35.498Z,1.30
2022-11-20T12:22:05.259Z,0.73
2022-11-20T12:24:28.786Z,0.90
2022-11-20T12:26:54.994Z,1.35
2022-11-20T12:29:11.698Z,2.05
2022-11-20T12:31:26.901Z,1.52
2022-11-20T12:34:10.516Z,1.20
2022-11-20T12:36:36.621Z,0.80
2022-11-20T12:39:10.185Z,1.35
2022-11-20T12:41:40.869Z,1.15
2022-11-20T12:44:29.266Z,1.40
2022-11-20T12:46:39.013Z,1.60
2022-11-20T12:49:30.607Z,1.30
2022-11-20T12:51:38.218Z,4.55
2022-11-20T12:53:58.507Z,4.07
2022-11-20T12:56:39.685Z,2.20
2022-11-20T12:58:51.781Z,2.20
2022-11-20T13:01:35.593Z,2.88
2022-11-20T13:03:44.596Z,2.22
2022-11-20T13:05:59.743Z,2.80
2022-11-20T13:08:02.548Z,3.33
2022-11-20T13:10:08.750Z,2.72
2022-11-20T13:12:34.463Z,3.45
2022-11-20T13:14:41.166Z,3.40
2022-11-20T13:16:52.038Z,3.67
2022-11-20T13:18:53.725Z,3.88
2022-11-20T13:20:55.419Z,2.45
2022-11-20T13:22:58.854Z,3.35
2022-11-20T13:25:00.539Z,3.35
2022-11-20T13:27:06.501Z,2.65
2022-11-20T13:29:26.185Z,3.03
2022-11-20T13:31:33.946Z,4.20
2022-11-20T13:33:37.827Z,4.68
2022-11-20T13:35:43.838Z,4.85
2022-11-20T13:37:45.447Z,6.55
2022-11-20T13:39:47.119Z,5.18
2022-11-20T13:42:17.601Z,5.22
2022-11-20T13:44:35.692Z,5.97
2022-11-20T13:46:55.524Z,4.78
2022-11-20T13:48:57.938Z,4.28
2022-11-20T13:51:25.697Z,4.60
2022-11-20T13:53:57.585Z,4.50
2022-11-20T13:56:00.871Z,4.55
2022-11-20T13:58:05.376Z,4.65
2022-11-20T14:00:18.083Z,4.15
2022-11-20T14:02:21.251Z,4.45
2022-11-20T14:04:29.820Z,4.55
2022-11-20T14:06:34.117Z,4.55
2022-11-20T14:08:43.244Z,4.07
2022-11-20T14:10:44.897Z,4.20
2022-11-20T14:12:46.538Z,3.90
2022-11-20T14:14:51.283Z,4.15
2022-11-20T14:16:53.965Z,3.05
2022-11-20T14:18:57.111Z,3.38
2022-11-20T14:21:02.524Z,3.42
2022-11-20T14:23:06.253Z,3.53
2022-11-20T14:27:29.929Z,2.40
2022-11-20T14:29:36.238Z,2.40
2022-11-20T14:31:38.047Z,2.50
2022-11-20T14:33:39.641Z,3.42
2022-11-20T14:35:52.764Z,3.53
2022-11-20T14:37:55.372Z,3.15
2022-11-20T14:39:57.457Z,2.85
2022-11-20T14:41:59.093Z,3.47
2022-11-20T14:44:01.583Z,3.58
2022-11-20T14:46:08.944Z,3.15
2022-11-20T14:48:10.933Z,3.47
2022-11-20T14:50:20.645Z,3.03
2022-11-20T14:52:24.241Z,3.63
2022-11-20T14:54:27.253Z,2.45
2022-11-20T14:56:28.957Z,4.43
2022-11-20T14:58:34.255Z,4.40
2022-11-20T15:00:36.460Z,4.50
2022-11-20T15:02:46.504Z,3.38
2022-11-20T15:04:49.835Z,2.15
2022-11-20T15:06:53.707Z,3.08
2022-11-20T15:10:58.533Z,2.10
2022-11-20T15:13:13.117Z,1.70
2022-11-20T15:15:19.133Z,2.10
2022-11-20T15:17:20.735Z,3.22
2022-11-20T15:19:26.630Z,2.50
2022-11-20T15:21:28.409Z,1.60
2022-11-20T15:23:30.573Z,1.92
2022-11-20T15:25:32.344Z,2.00
2022-11-20T15:27:34.010Z,2.10
2022-11-20T15:29:35.669Z,2.35
2022-11-20T15:31:38.515Z,1.73
2022-11-20T15:33:40.328Z,1.65
2022-11-20T15:35:42.152Z,1.80
2022-11-20T15:37:43.926Z,2.05
2022-11-20T15:39:45.719Z,2.30
2022-11-20T15:41:47.966Z,2.58
2022-11-20T15:43:49.550Z,2.00
2022-11-20T15:46:01.338Z,2.20
2022-11-20T15:48:03.432Z,2.08
2022-11-20T15:50:06.941Z,2.50
2022-11-20T15:52:10.353Z,2.40
2022-11-20T15:54:18.577Z,3.10
2022-11-20T15:56:20.151Z,3.50
2022-11-20T15:58:23.936Z,3.20
2022-11-20T16:02:27.076Z,3.28
2022-11-20T16:04:28.763Z,4.03
2022-11-20T16:06:30.410Z,3.85
2022-11-20T16:08:31.986Z,4.35
2022-11-20T16:10:34.209Z,4.90
2022-11-20T16:12:54.691Z,6.38
2022-11-20T16:15:15.049Z,4.38
2022-11-20T16:17:36.682Z,3.78
2022-11-20T16:19:38.459Z,3.67
2022-11-20T16:21:42.558Z,3.08
2022-11-20T16:23:44.170Z,3.60
2022-11-20T16:25:45.983Z,3.60
2022-11-20T16:27:47.634Z,4.50
2022-11-20T16:29:49.242Z,5.15
2022-11-20T16:31:50.919Z,5.95
2022-11-20T16:33:54.346Z,7.10
2022-11-20T16:35:55.907Z,7.93
2022-11-20T16:37:58.509Z,12.30
2022-11-20T16:40:00.143Z,5.30
2022-11-20T16:42:04.730Z,10.50
2022-11-20T16:44:11.146Z,9.55
2022-11-20T16:46:12.746Z,8.95
2022-11-20T16:48:16.193Z,11.35
2022-11-20T16:50:17.849Z,11.23
2022-11-20T16:52:19.481Z,7.90
2022-11-20T16:54:21.615Z,8.07
2022-11-20T16:56:25.537Z,7.50
2022-11-20T17:00:28.978Z,3.20
2022-11-20T17:02:30.637Z,3.35
2022-11-20T17:04:32.529Z,4.55
2022-11-20T17:06:36.651Z,4.03
2022-11-20T17:08:38.281Z,3.10
2022-11-20T17:10:40.019Z,2.88
2022-11-20T17:12:43.594Z,3.10
2022-11-20T17:14:46.370Z,3.08
2022-11-20T17:16:48.013Z,3.15
2022-11-20T17:19:01.089Z,3.35
2022-11-20T17:21:05.585Z,4.00
2022-11-20T17:23:07.314Z,3.40
2022-11-20T17:25:09.048Z,2.90
2022-11-20T17:27:10.808Z,2.80
2022-11-20T17:29:14.927Z,3.78
2022-11-20T17:31:17.546Z,4.10
2022-11-20T17:33:19.135Z,3.75
2022-11-20T17:35:20.857Z,3.05
2022-11-20T17:37:22.470Z,3.78
2022-11-20T17:39:24.057Z,3.80
2022-11-20T17:41:27.862Z,3.47
2022-11-20T17:45:37.541Z,3.95
2022-11-20T17:47:39.138Z,3.97
2022-11-20T17:49:40.748Z,3.97
2022-11-20T17:51:42.338Z,3.90
2022-11-20T17:53:46.427Z,4.40
2022-11-20T17:56:17.156Z,4.80
2022-11-20T17:58:18.750Z,4.97
2022-11-20T18:00:21.140Z,4.47
2022-11-20T18:02:22.818Z,4.30
2022-11-20T18:04:25.278Z,4.50
2022-11-20T18:06:28.114Z,5.50
2022-11-20T18:08:29.747Z,4.85
2022-11-20T18:10:31.461Z,4.03
2022-11-20T18:12:33.154Z,3.38
2022-11-20T18:14:36.546Z,4.30
2022-11-20T18:16:46.643Z,4.80
2022-11-20T18:18:48.269Z,3.88
2022-11-20T18:20:53.737Z,3.60
2022-11-20T18:22:55.408Z,2.40
2022-11-20T18:24:57.008Z,2.10
2022-11-20T18:26:59.063Z,3.00
2022-11-20T18:29:04.676Z,3.10
2022-11-20T18:31:09.352Z,2.80
2022-11-20T18:33:11.019Z,3.08
2022-11-20T18:35:12.693Z,4.25
2022-11-20T18:37:15.460Z,4.28
2022-11-20T18:39:17.805Z,3.55
2022-11-20T18:41:39.626Z,4.25
2022-11-20T18:44:00.213Z,4.90
2022-11-20T18:46:03.771Z,4.18
2022-11-20T18:48:05.555Z,3.90
2022-11-20T18:50:08.567Z,3.95
2022-11-20T18:52:10.269Z,4.20
2022-11-20T18:54:12.909Z,2.00
2022-11-20T18:56:14.544Z,3.45
2022-11-20T18:58:16.253Z,2.58
2022-11-20T19:00:18.358Z,1.90
2022-11-20T19:02:20.643Z,1.60
2022-11-20T19:04:23.284Z,1.42
2022-11-20T19:06:25.928Z,1.23
2022-11-20T19:08:27.809Z,1.45
2022-11-20T19:10:29.495Z,1.38
2022-11-20T19:12:31.304Z,3.00
2022-11-20T19:14:32.947Z,2.08
2022-11-20T19:16:35.029Z,1.52
2022-11-20T19:18:36.693Z,1.70
2022-11-20T19:20:38.315Z,1.60
2022-11-20T19:22:40.059Z,1.60
2022-11-20T19:24:41.837Z,1.30
2022-11-20T19:26:43.641Z,1.60
2022-11-20T19:28:46.342Z,2.00
2022-11-20T19:30:47.920Z,1.80
2022-11-20T19:32:49.571Z,1.77
2022-11-20T19:34:51.209Z,2.00
2022-11-20T19:36:52.984Z,1.85
2022-11-20T19:38:55.150Z,1.95
2022-11-20T19:40:56.816Z,2.17
2022-11-20T19:42:58.426Z,2.83
2022-11-20T19:45:00.032Z,2.30
2022-11-20T19:47:04.154Z,2.58
2022-11-20T19:49:10.577Z,2.28
2022-11-20T19:51:14.710Z,2.70
2022-11-20T19:53:16.379Z,2.50
2022-11-20T19:55:18.118Z,2.50
2022-11-20T19:57:19.671Z,3.75
2022-11-20T19:59:21.640Z,3.10
2022-11-20T20:01:26.683Z,3.30
2022-11-20T20:03:28.442Z,3.70
2022-11-20T20:05:30.169Z,3.42
2022-11-20T20:07:31.902Z,2.85
2022-11-20T20:09:34.381Z,3.17
2022-11-20T20:11:36.788Z,2.80
2022-11-20T20:13:38.876Z,2.88
2022-11-20T20:15:41.415Z,2.97
2022-11-20T20:17:43.011Z,2.65
2022-11-20T20:19:44.667Z,2.80
2022-11-20T20:21:47.793Z,2.35
2022-11-20T20:23:56.354Z,2.83
2022-11-20T20:25:58.587Z,2.58
2022-11-20T20:28:00.252Z,2.15
2022-11-20T20:30:01.896Z,2.00
2022-11-20T20:32:03.590Z,2.10
2022-11-20T20:34:06.080Z,1.60
2022-11-20T20:36:09.545Z,1.70
2022-11-20T20:38:11.301Z,1.65
2022-11-20T20:40:15.318Z,1.75
2022-11-20T20:42:17.130Z,1.70
2022-11-20T20:44:37.399Z,1.70
2022-11-20T20:46:39.704Z,1.77
2022-11-20T20:48:41.333Z,1.77
2022-11-20T20:50:43.672Z,1.40
2022-11-20T20:52:45.344Z,1.50
2022-11-20T20:54:46.949Z,1.70
2022-11-20T20:56:51.359Z,1.73
2022-11-20T20:58:53.026Z,1.90
2022-11-20T21:00:55.023Z,1.73
2022-11-20T21:02:56.760Z,2.20
2022-11-20T21:04:59.878Z,2.58
2022-11-20T21:07:01.543Z,2.15
2022-11-20T21:09:03.633Z,1.92
2022-11-20T21:11:07.645Z,1.92
2022-11-20T21:13:22.184Z,1.70
2022-11-20T21:15:23.970Z,2.03
2022-11-20T21:17:26.849Z,1.83
2022-11-20T21:19:28.569Z,1.80
2022-11-20T21:21:48.737Z,1.90
2022-11-20T21:23:51.672Z,1.70
2022-11-20T21:25:53.517Z,1.87
2022-11-20T21:27:55.098Z,1.58
2022-11-20T21:29:56.734Z,1.60
2022-11-20T21:31:58.821Z,1.50
2022-11-20T21:34:01.606Z,1.75
2022-11-20T21:36:04.102Z,1.70
2022-11-20T21:38:05.750Z,2.20
2022-11-20T21:40:08.092Z,1.73
2022-11-20T21:42:09.920Z,2.22
2022-11-20T21:46:39.029Z,2.03
2022-11-20T21:48:41.799Z,1.77
2022-11-20T21:50:43.554Z,2.47
2022-11-20T21:52:45.355Z,2.25
2022-11-20T21:54:46.939Z,2.65
2022-11-20T21:56:48.536Z,2.20
2022-11-20T21:58:52.606Z,3.03
2022-11-20T22:00:54.667Z,2.65
2022-11-20T22:02:56.242Z,2.60
2022-11-20T22:04:57.865Z,2.33
2022-11-20T22:06:59.543Z,2.80
2022-11-20T22:09:04.316Z,2.70
2022-11-20T22:11:08.517Z,2.90
2022-11-20T22:13:36.325Z,2.50
2022-11-20T22:15:59.194Z,2.97
2022-11-20T22:18:14.792Z,3.33
2022-11-20T22:20:16.771Z,2.65
2022-11-20T22:22:18.308Z,3.05
2022-11-20T22:24:21.204Z,3.08
2022-11-20T22:26:25.192Z,3.15
2022-11-20T22:28:26.769Z,2.97
2022-11-20T22:30:28.439Z,3.08
2022-11-20T22:32:30.046Z,3.00
2022-11-20T22:34:31.634Z,2.80
2022-11-20T22:36:37.018Z,3.30
2022-11-20T22:38:39.726Z,2.85
2022-11-20T22:40:46.663Z,3.30
2022-11-20T22:42:48.457Z,3.47
2022-11-20T22:44:50.093Z,3.50
2022-11-20T22:46:51.686Z,3.88
2022-11-20T22:48:57.822Z,3.70
2022-11-20T22:51:08.078Z,3.95
2022-11-20T22:53:10.041Z,3.80
2022-11-20T22:55:16.081Z,3.47
2022-11-20T22:57:24.483Z,4.18
2022-11-20T22:59:26.053Z,4.03
2022-11-20T23:01:32.666Z,3.90
2022-11-20T23:03:34.481Z,4.10
2022-11-20T23:05:36.121Z,4.28
2022-11-20T23:07:40.963Z,3.97
2022-11-20T23:09:42.852Z,4.38
2022-11-20T23:11:44.490Z,4.35
2022-11-20T23:13:46.472Z,4.82
2022-11-20T23:15:48.059Z,4.60
2022-11-20T23:17:49.693Z,4.35
2022-11-20T23:19:51.270Z,5.32
2022-11-20T23:21:52.900Z,4.53
2022-11-20T23:23:58.965Z,4.90
2022-11-20T23:26:06.449Z,5.00
2022-11-20T23:28:08.399Z,4.55
2022-11-20T23:30:10.373Z,5.10
2022-11-20T23:32:11.992Z,5.78
2022-11-20T23:34:13.723Z,5.22
2022-11-20T23:36:15.630Z,5.43
2022-11-20T23:38:17.273Z,5.80
2022-11-20T23:40:18.936Z,5.20
2022-11-20T23:42:20.471Z,5.00
2022-11-20T23:44:31.466Z,4.78
2022-11-20T23:46:33.164Z,4.65
2022-11-20T23:48:37.121Z,5.03
2022-11-20T23:50:39.193Z,4.18
2022-11-20T23:52:41.001Z,5.20
2022-11-20T23:54:42.578Z,4.32
2022-11-20T23:56:44.178Z,5.30
2022-11-20T23:58:45.896Z,4.85
